Time;durP1;ratioP1;P1;durP2;ratioP2;P2;SDS_P1;SDS_P2;PMS_P1;PMS_P2;Temp;Humidity;BMP_temperature;BMP_pressure;BME280_temperature;BME280_humidity;BME280_pressure;Samples;Min_cycle;Max_cycle;Signal;HPM_P1;HPM_P2
2023/03/07 06:49:11;;;;;;;;;;;2.60;99.90;;;;;;6213509;23;21771;-84
2023/03/07 06:59:33;;;;;;;;;;;2.60;99.90;;;;;;6002063;23;19921;-83
2023/03/07 07:44:54;;;;;;;;;;;2.90;99.90;;;;;;6288150;22;19941;-85
2023/03/07 07:47:27;;;;;;;;;;;2.90;99.90;;;;;;6250368;22;20378;-84
2023/03/07 07:49:53;;;;;;;;;;;3.00;99.90;;;;;;6250538;22;19915;-83
2023/03/07 07:52:21;;;;;;;;;;;2.70;99.90;;;;;;6250226;22;19914;-84
2023/03/07 07:55:09;;;;;;;;;;;2.90;99.90;;;;;;6250283;22;19926;-84
2023/03/07 07:57:56;;;;;;;;;;;3.10;99.90;;;;;;6252889;22;19915;-85
2023/03/07 08:00:21;;;;;;;;;;;2.60;99.90;;;;;;6277304;22;19950;-86
2023/03/07 08:02:50;;;;;;;;;;;2.90;99.90;;;;;;6249762;22;19922;-86
2023/03/07 08:05:16;;;;;;;;;;;2.80;99.90;;;;;;6275988;22;20326;-87
2023/03/07 08:07:42;;;;;;;;;;;2.90;99.90;;;;;;6246691;22;19994;-87
2023/03/07 08:10:08;;;;;;;;;;;3.30;99.90;;;;;;6274024;22;20367;-84
2023/03/07 08:12:34;;;;;;;;;;;3.30;99.90;;;;;;6246598;22;19915;-84
2023/03/07 08:15:00;;;;;;;;;;;2.60;99.90;;;;;;6273879;22;19947;-86
2023/03/07 08:17:27;;;;;;;;;;;3.10;99.90;;;;;;6247422;22;19916;-85
2023/03/07 08:19:52;;;;;;;;;;;3.10;99.90;;;;;;6249228;22;19915;-84
2023/03/07 08:22:18;;;;;;;;;;;3.40;99.90;;;;;;6244967;22;20065;-84
2023/03/07 08:24:44;;;;;;;;;;;3.50;99.90;;;;;;6242922;22;19973;-85
2023/03/07 08:27:10;;;;;;;;;;;3.60;99.90;;;;;;6273062;22;20191;-87
2023/03/07 08:29:35;;;;;;;;;;;3.30;99.90;;;;;;6271163;22;19919;-84
2023/03/07 08:32:01;;;;;;;;;;;3.40;99.90;;;;;;6268590;22;19915;-84
2023/03/07 08:34:26;;;;;;;;;;;3.90;99.90;;;;;;6268810;22;19915;-81
2023/03/07 08:36:52;;;;;;;;;;;3.10;99.90;;;;;;6271958;22;20204;-82
2023/03/07 08:39:17;;;;;;;;;;;4.00;99.90;;;;;;6270284;22;20339;-83
2023/03/07 08:41:43;;;;;;;;;;;3.30;99.90;;;;;;6268710;22;19919;-83
2023/03/07 08:44:09;;;;;;;;;;;3.30;99.90;;;;;;6270637;22;19951;-83
2023/03/07 08:46:38;;;;;;;;;;;3.10;99.90;;;;;;6268424;22;20215;-83
2023/03/07 08:49:04;;;;;;;;;;;3.20;99.90;;;;;;6266428;22;19919;-86
2023/03/07 08:51:29;;;;;;;;;;;3.50;99.90;;;;;;6268035;22;19915;-85
2023/03/07 08:53:56;;;;;;;;;;;3.40;99.90;;;;;;6273872;22;19986;-85
2023/03/07 08:56:21;;;;;;;;;;;3.70;99.90;;;;;;6271438;22;19926;-85
2023/03/07 08:58:50;;;;;;;;;;;4.00;99.90;;;;;;6272724;22;19947;-88
2023/03/07 09:01:16;;;;;;;;;;;3.20;99.90;;;;;;6246323;22;19915;-87
2023/03/07 09:03:42;;;;;;;;;;;3.00;99.90;;;;;;6272238;22;19915;-82
2023/03/07 09:06:13;;;;;;;;;;;3.20;99.90;;;;;;6272808;22;19931;-84
2023/03/07 09:08:39;;;;;;;;;;;3.10;99.90;;;;;;6245784;22;19920;-85
2023/03/07 09:11:04;;;;;;;;;;;3.20;99.90;;;;;;6269505;22;20314;-85
2023/03/07 09:13:30;;;;;;;;;;;3.00;99.90;;;;;;6247591;22;20337;-84
2023/03/07 09:15:55;;;;;;;;;;;3.20;99.90;;;;;;6269227;22;20256;-83
2023/03/07 09:18:21;;;;;;;;;;;3.20;99.90;;;;;;6272489;22;20176;-86
2023/03/07 09:20:47;;;;;;;;;;;3.20;99.90;;;;;;6245222;22;19925;-86
2023/03/07 09:23:13;;;;;;;;;;;3.00;99.90;;;;;;6270615;22;19922;-85
2023/03/07 09:25:39;;;;;;;;;;;3.60;99.90;;;;;;6245711;22;20229;-84
2023/03/07 09:28:04;;;;;;;;;;;3.80;99.90;;;;;;6246125;22;20300;-84
2023/03/07 09:30:30;;;;;;;;;;;3.30;99.90;;;;;;6245684;22;19919;-86
2023/03/07 09:32:56;;;;;;;;;;;2.90;99.90;;;;;;6273243;22;19930;-88
2023/03/07 09:35:22;;;;;;;;;;;3.00;99.90;;;;;;6280722;22;19915;-82
2023/03/07 09:37:47;;;;;;;;;;;3.20;99.90;;;;;;6250424;22;19919;-80
2023/03/07 09:40:28;;;;;;;;;;;3.40;99.90;;;;;;6248330;22;19915;-86
2023/03/07 09:43:17;;;;;;;;;;;3.00;99.90;;;;;;6271647;22;20006;-84
2023/03/07 09:45:43;;;;;;;;;;;3.30;99.90;;;;;;6251373;22;20021;-82
2023/03/07 09:48:11;;;;;;;;;;;3.30;99.90;;;;;;6278164;22;19926;-82
2023/03/07 09:50:45;;;;;;;;;;;3.10;99.90;;;;;;6252347;22;19915;-85
2023/03/07 09:53:29;;;;;;;;;;;3.10;99.90;;;;;;6277591;22;20288;-86
2023/03/07 09:55:56;;;;;;;;;;;3.30;99.90;;;;;;6279737;22;19930;-83
2023/03/07 09:58:22;;;;;;;;;;;3.00;99.90;;;;;;6277816;22;20338;-83
2023/03/07 10:00:52;;;;;;;;;;;3.30;99.90;;;;;;6251016;22;19919;-83
2023/03/07 10:03:26;;;;;;;;;;;3.90;99.90;;;;;;6252473;22;20261;-82
2023/03/07 10:05:54;;;;;;;;;;;3.10;99.90;;;;;;6276855;22;20728;-85
2023/03/07 10:08:25;;;;;;;;;;;2.90;99.90;;;;;;6276794;22;19915;-85
2023/03/07 10:11:10;;;;;;;;;;;3.30;99.90;;;;;;6277192;22;19915;-86
2023/03/07 10:14:06;;;;;;;;;;;3.10;99.90;;;;;;6305716;22;19922;-82
2023/03/07 10:16:38;;;;;;;;;;;3.10;99.90;;;;;;6275277;22;19950;-83
2023/03/07 10:19:10;;;;;;;;;;;3.10;99.90;;;;;;6278454;22;20214;-86
2023/03/07 10:21:59;;;;;;;;;;;2.80;99.90;;;;;;6278287;22;19926;-86
2023/03/07 10:24:48;;;;;;;;;;;3.40;99.90;;;;;;6277668;22;19915;-83
2023/03/07 10:27:14;;;;;;;;;;;3.10;99.90;;;;;;6304251;22;19915;-82
2023/03/07 10:29:50;;;;;;;;;;;4.10;99.90;;;;;;6277955;22;19926;-87
2023/03/07 10:32:16;;;;;;;;;;;3.20;99.90;;;;;;6305714;22;19915;-83
2023/03/07 10:34:41;;;;;;;;;;;3.60;99.90;;;;;;6277491;22;19937;-88
2023/03/07 10:37:17;;;;;;;;;;;3.30;99.90;;;;;;6251288;22;20281;-85
2023/03/07 10:39:50;;;;;;;;;;;3.50;99.90;;;;;;6251834;22;20002;-84
2023/03/07 10:42:16;;;;;;;;;;;3.30;99.90;;;;;;6252238;22;20398;-86
2023/03/07 10:44:44;;;;;;;;;;;4.10;99.90;;;;;;6304778;22;19958;-86
2023/03/07 10:47:21;;;;;;;;;;;4.20;99.90;;;;;;6252755;22;20211;-81
2023/03/07 10:49:48;;;;;;;;;;;3.70;99.90;;;;;;6278255;22;20295;-83
2023/03/07 10:52:19;;;;;;;;;;;3.70;99.90;;;;;;6250787;22;20240;-83
2023/03/07 10:54:45;;;;;;;;;;;3.70;99.90;;;;;;6251143;22;19921;-86
2023/03/07 10:57:12;;;;;;;;;;;3.70;99.90;;;;;;6276276;22;19990;-87
2023/03/07 10:59:39;;;;;;;;;;;3.60;99.90;;;;;;6251400;22;19950;-84
2023/03/07 11:02:24;;;;;;;;;;;4.60;99.90;;;;;;6277489;22;19915;-83
2023/03/07 11:04:50;;;;;;;;;;;3.80;99.90;;;;;;6276805;22;19919;-87
2023/03/07 11:07:30;;;;;;;;;;;3.80;99.90;;;;;;6276284;22;19994;-83
2023/03/07 11:09:56;;;;;;;;;;;3.90;99.90;;;;;;6251954;22;19926;-85
2023/03/07 11:12:23;;;;;;;;;;;5.10;99.90;;;;;;6251520;22;19915;-86
2023/03/07 11:14:59;;;;;;;;;;;4.00;99.90;;;;;;6251819;22;19926;-84
2023/03/07 11:17:26;;;;;;;;;;;4.20;99.90;;;;;;6275864;22;20033;-89
2023/03/07 11:19:52;;;;;;;;;;;4.60;99.90;;;;;;6303116;22;19992;-86
2023/03/07 11:22:20;;;;;;;;;;;5.40;99.90;;;;;;6275254;22;19918;-85
2023/03/07 11:24:50;;;;;;;;;;;4.90;99.90;;;;;;6274896;22;19995;-82
2023/03/07 11:27:40;;;;;;;;;;;5.40;99.90;;;;;;6272810;22;19919;-83
2023/03/07 11:30:07;;;;;;;;;;;5.40;99.90;;;;;;6247602;22;19918;-81
2023/03/07 11:32:35;;;;;;;;;;;5.20;99.90;;;;;;6275921;22;20176;-83
2023/03/07 11:35:14;;;;;;;;;;;4.90;99.90;;;;;;6278309;22;19972;-84
2023/03/07 11:37:51;;;;;;;;;;;3.20;99.90;;;;;;6251743;22;20289;-84
2023/03/07 11:40:35;;;;;;;;;;;3.20;99.90;;;;;;6252453;22;19923;-84
2023/03/07 11:43:16;;;;;;;;;;;3.20;99.90;;;;;;6250948;22;20002;-85
2023/03/07 11:45:57;;;;;;;;;;;3.30;99.90;;;;;;6251407;22;20346;-84
2023/03/07 11:48:33;;;;;;;;;;;3.20;99.90;;;;;;6275349;22;19923;-86
2023/03/07 11:50:59;;;;;;;;;;;3.20;99.90;;;;;;6276111;22;20035;-82
2023/03/07 11:53:33;;;;;;;;;;;3.10;99.90;;;;;;6276384;22;19919;-82
2023/03/07 11:56:04;;;;;;;;;;;3.10;99.90;;;;;;6276529;22;19992;-83
2023/03/07 11:58:45;;;;;;;;;;;3.20;99.90;;;;;;6249832;22;19926;-84
2023/03/07 12:01:17;;;;;;;;;;;3.20;99.90;;;;;;6275039;22;19946;-83
2023/03/07 12:03:57;;;;;;;;;;;3.40;99.90;;;;;;6250117;22;20456;-83
2023/03/07 12:06:26;;;;;;;;;;;3.70;99.90;;;;;;6275139;22;19963;-85
2023/03/07 12:09:00;;;;;;;;;;;3.80;99.90;;;;;;6276874;22;19930;-85
2023/03/07 12:11:38;;;;;;;;;;;4.00;99.90;;;;;;6304676;22;19919;-84
2023/03/07 12:14:19;;;;;;;;;;;4.20;99.90;;;;;;6252081;22;19926;-83
2023/03/07 12:16:44;;;;;;;;;;;4.40;99.90;;;;;;6252134;22;19990;-85
2023/03/07 12:19:30;;;;;;;;;;;4.40;99.90;;;;;;6248477;22;19996;-83
2023/03/07 12:22:26;;;;;;;;;;;5.00;99.90;;;;;;6248823;22;19922;-84
2023/03/07 12:24:59;;;;;;;;;;;5.20;99.90;;;;;;6097605;23;19936;-82
2023/03/07 12:27:29;;;;;;;;;;;5.20;99.90;;;;;;6097111;23;19931;-82
2023/03/07 12:30:00;;;;;;;;;;;5.20;99.90;;;;;;6097069;23;19924;-82
2023/03/07 12:32:26;;;;;;;;;;;5.20;99.90;;;;;;6146302;23;20063;-82
2023/03/07 12:34:57;;;;;;;;;;;5.20;99.90;;;;;;6098566;23;20256;-82
2023/03/07 12:37:32;;;;;;;;;;;5.40;99.90;;;;;;6096653;23;19953;-81
2023/03/07 12:39:59;;;;;;;;;;;5.20;99.90;;;;;;6095432;23;19991;-84
2023/03/07 12:42:30;;;;;;;;;;;5.20;99.90;;;;;;6147024;23;20007;-85
2023/03/07 12:45:10;;;;;;;;;;;5.10;99.90;;;;;;6094200;23;20265;-84
2023/03/07 12:47:49;;;;;;;;;;;4.80;99.90;;;;;;6121698;23;19946;-83
2023/03/07 12:50:22;;;;;;;;;;;4.80;99.90;;;;;;6122364;23;19920;-85
2023/03/07 12:52:47;;;;;;;;;;;4.70;99.90;;;;;;6096897;23;19916;-82
2023/03/07 12:55:13;;;;;;;;;;;4.70;99.90;;;;;;6099540;23;19952;-83
2023/03/07 12:57:42;;;;;;;;;;;4.90;99.90;;;;;;6121908;23;19917;-83
2023/03/07 13:00:10;;;;;;;;;;;5.30;99.90;;;;;;6103673;22;19916;-83
2023/03/07 13:02:39;;;;;;;;;;;5.60;99.90;;;;;;6301832;22;20054;-83
2023/03/07 13:05:04;;;;;;;;;;;5.70;99.90;;;;;;6272773;22;19919;-83
2023/03/07 13:07:31;;;;;;;;;;;5.50;99.90;;;;;;6300871;22;20298;-83
2023/03/07 13:09:58;;;;;;;;;;;5.30;99.90;;;;;;6245101;22;19954;-85
2023/03/07 13:12:28;;;;;;;;;;;6.00;99.90;;;;;;6300644;22;19922;-84
2023/03/07 13:14:53;;;;;;;;;;;5.40;99.90;;;;;;6250735;22;19941;-82
2023/03/07 13:17:34;;;;;;;;;;;5.60;99.90;;;;;;6304221;22;20273;-84
2023/03/07 13:23:21;;;;;;;;;;;5.70;99.90;;;;;;6275613;22;19915;-84
2023/03/07 13:26:03;;;;;;;;;;;5.30;99.90;;;;;;6276299;22;19998;-87
2023/03/07 13:28:50;;;;;;;;;;;5.20;99.90;;;;;;6250774;22;19929;-85
2023/03/07 13:31:45;;;;;;;;;;;5.30;99.90;;;;;;6249961;22;20361;-85
2023/03/07 13:34:42;;;;;;;;;;;5.50;99.90;;;;;;6101657;23;19956;-86
2023/03/07 13:37:29;;;;;;;;;;;5.50;99.90;;;;;;6102101;23;19916;-85
2023/03/07 13:40:02;;;;;;;;;;;5.50;99.90;;;;;;6101374;23;19964;-86
2023/03/07 13:42:48;;;;;;;;;;;5.30;99.90;;;;;;6099875;23;19988;-86
2023/03/07 13:45:32;;;;;;;;;;;4.80;99.90;;;;;;6100535;23;20064;-84
2023/03/07 13:47:57;;;;;;;;;;;4.70;99.90;;;;;;6102000;23;19921;-84
2023/03/07 13:50:34;;;;;;;;;;;4.40;99.90;;;;;;6125769;23;19917;-84
2023/03/07 13:53:01;;;;;;;;;;;4.20;99.90;;;;;;6100995;23;20012;-84
2023/03/07 13:55:29;;;;;;;;;;;3.90;99.90;;;;;;6151913;23;19975;-85
2023/03/07 14:01:20;;;;;;;;;;;3.90;99.90;;;;;;6150877;23;20261;-83
2023/03/07 14:03:51;;;;;;;;;;;3.80;99.90;;;;;;6103286;23;19920;-84
2023/03/07 14:06:18;;;;;;;;;;;3.80;99.90;;;;;;6151523;23;19917;-87
2023/03/07 14:08:44;;;;;;;;;;;3.80;99.90;;;;;;6102093;23;19921;-85
2023/03/07 14:11:17;;;;;;;;;;;5.00;99.90;;;;;;6214891;22;19941;-86
2023/03/07 14:13:42;;;;;;;;;;;4.10;99.90;;;;;;6250354;22;19926;-84
2023/03/07 14:16:23;;;;;;;;;;;4.50;99.90;;;;;;6278639;22;19919;-84
2023/03/07 14:19:03;;;;;;;;;;;4.60;99.90;;;;;;6262453;22;20247;-83
2023/03/07 14:21:53;;;;;;;;;;;4.50;99.90;;;;;;6287357;22;19919;-82
2023/03/07 14:24:30;;;;;;;;;;;4.80;99.90;;;;;;6263890;22;19985;-82
2023/03/07 14:26:56;;;;;;;;;;;4.60;99.90;;;;;;6287403;22;20227;-84
2023/03/07 14:29:23;;;;;;;;;;;4.80;99.90;;;;;;6289237;22;19977;-85
2023/03/07 14:31:51;;;;;;;;;;;5.10;99.90;;;;;;6314965;22;19919;-84
2023/03/07 14:34:20;;;;;;;;;;;4.80;99.90;;;;;;6259955;22;20013;-84
2023/03/07 14:36:51;;;;;;;;;;;4.00;99.90;;;;;;6305427;22;20313;-85
2023/03/07 14:39:18;;;;;;;;;;;3.80;99.90;;;;;;6276342;22;19941;-85
2023/03/07 14:41:50;;;;;;;;;;;3.80;99.90;;;;;;6274822;22;19984;-84
2023/03/07 14:44:23;;;;;;;;;;;3.60;99.90;;;;;;6272708;22;19969;-84
2023/03/07 14:46:58;;;;;;;;;;;4.00;99.90;;;;;;6267233;22;19955;-83
2023/03/07 14:49:35;;;;;;;;;;;3.70;99.90;;;;;;6271977;22;19915;-84
2023/03/07 14:52:01;;;;;;;;;;;3.60;99.90;;;;;;6269026;22;19919;-87
2023/03/07 14:54:29;;;;;;;;;;;4.00;99.90;;;;;;6242197;22;19954;-83
2023/03/07 14:56:56;;;;;;;;;;;3.60;99.90;;;;;;6242261;22;20251;-85
2023/03/07 14:59:21;;;;;;;;;;;3.90;99.90;;;;;;6243635;22;20279;-86
2023/03/07 15:01:47;;;;;;;;;;;3.50;99.90;;;;;;6245367;22;19943;-86
2023/03/07 15:04:27;;;;;;;;;;;4.10;99.90;;;;;;6245130;22;19990;-83
2023/03/07 15:07:00;;;;;;;;;;;3.50;99.90;;;;;;6246147;22;20235;-85
2023/03/07 15:09:26;;;;;;;;;;;3.40;99.90;;;;;;6246006;22;20377;-83
2023/03/07 15:11:51;;;;;;;;;;;3.30;99.90;;;;;;6270634;22;19916;-84
2023/03/07 15:14:22;;;;;;;;;;;3.40;99.90;;;;;;6246327;22;20184;-84
2023/03/07 15:16:59;;;;;;;;;;;3.70;99.90;;;;;;6267225;22;19923;-86
2023/03/07 15:19:30;;;;;;;;;;;3.40;99.90;;;;;;6271352;22;19982;-86
2023/03/07 15:21:58;;;;;;;;;;;2.10;99.90;;;;;;6270967;22;19919;-83
2023/03/07 15:24:27;;;;;;;;;;;2.90;99.90;;;;;;6270411;22;19930;-87
2023/03/07 15:26:54;;;;;;;;;;;2.40;99.90;;;;;;6244425;22;19922;-85
2023/03/07 15:29:27;;;;;;;;;;;3.00;99.90;;;;;;6243355;22;19919;-85
2023/03/07 15:31:56;;;;;;;;;;;2.80;99.90;;;;;;6245898;22;20329;-88
2023/03/07 15:34:29;;;;;;;;;;;2.70;99.90;;;;;;6248333;22;19915;-85
2023/03/07 15:37:15;;;;;;;;;;;2.60;99.90;;;;;;6249982;22;19926;-86
2023/03/07 15:39:40;;;;;;;;;;;2.60;99.90;;;;;;6275744;22;20011;-88
2023/03/07 15:42:06;;;;;;;;;;;2.60;99.90;;;;;;6249240;22;20025;-86
2023/03/07 15:44:35;;;;;;;;;;;3.30;99.90;;;;;;6248970;22;20331;-84
2023/03/07 15:47:11;;;;;;;;;;;3.30;99.90;;;;;;6248071;22;20227;-86
2023/03/07 15:49:39;;;;;;;;;;;3.60;99.90;;;;;;6275016;22;19945;-86
2023/03/07 15:52:05;;;;;;;;;;;3.60;99.90;;;;;;6275940;22;20295;-88
2023/03/07 15:54:34;;;;;;;;;;;4.90;99.90;;;;;;6277097;22;20287;-87
2023/03/07 15:57:05;;;;;;;;;;;4.40;99.90;;;;;;6249040;22;19919;-85
2023/03/07 15:59:36;;;;;;;;;;;4.60;99.90;;;;;;6249789;22;19934;-88
2023/03/07 16:02:28;;;;;;;;;;;4.40;99.90;;;;;;6246203;22;19989;-86
2023/03/07 16:04:54;;;;;;;;;;;4.30;99.90;;;;;;6245331;22;20037;-88
2023/03/07 16:07:20;;;;;;;;;;;4.90;99.90;;;;;;6247141;22;20004;-86
2023/03/07 16:09:48;;;;;;;;;;;4.90;99.90;;;;;;6246686;22;20386;-87
2023/03/07 16:12:21;;;;;;;;;;;5.10;99.90;;;;;;6247644;22;19938;-87
2023/03/07 16:14:57;;;;;;;;;;;5.00;99.90;;;;;;6272751;22;19923;-88
2023/03/07 16:17:33;;;;;;;;;;;5.50;99.90;;;;;;6246954;22;19930;-85
2023/03/07 16:19:58;;;;;;;;;;;4.70;99.90;;;;;;6244919;22;19919;-85
2023/03/07 16:22:24;;;;;;;;;;;5.80;99.90;;;;;;6246461;22;19975;-85
2023/03/07 16:24:53;;;;;;;;;;;4.80;99.90;;;;;;6252201;22;19919;-88
2023/03/07 16:27:28;;;;;;;;;;;4.40;99.90;;;;;;6151713;23;19995;-87
2023/03/07 16:33:24;;;;;;;;;;;3.50;99.90;;;;;;6129874;23;20000;-89
2023/03/07 16:35:55;;;;;;;;;;;3.40;99.90;;;;;;6099874;23;19927;-89
2023/03/07 16:38:57;;;;;;;;;;;3.10;99.90;;;;;;6099065;23;19920;-89
2023/03/07 16:49:32;;;;;;;;;;;3.80;99.90;;;;;;5997235;23;19967;-87
2023/03/07 16:53:08;;;;;;;;;;;4.00;99.90;;;;;;5977031;24;20379;-88
2023/03/07 16:56:00;;;;;;;;;;;3.70;99.90;;;;;;5955290;24;20045;-86
2023/03/07 17:02:04;;;;;;;;;;;2.90;99.90;;;;;;6080942;23;20076;-92
2023/03/07 17:04:35;;;;;;;;;;;2.80;99.90;;;;;;6041887;23;19949;-94
2023/03/07 17:10:46;;;;;;;;;;;2.50;99.90;;;;;;6088952;23;19948;-91
2023/03/07 17:13:20;;;;;;;;;;;2.30;99.90;;;;;;6038633;23;19953;-89
2023/03/07 17:38:20;;;;;;;;;;;1.60;99.90;;;;;;6274067;22;19923;-86
2023/03/07 17:40:51;;;;;;;;;;;1.10;99.90;;;;;;6248195;22;19915;-84
2023/03/07 17:43:22;;;;;;;;;;;2.10;99.90;;;;;;6221111;22;19986;-85
2023/03/07 17:45:51;;;;;;;;;;;1.80;99.90;;;;;;6222674;22;19955;-85
2023/03/07 17:48:17;;;;;;;;;;;1.60;99.90;;;;;;6221868;22;20295;-84
2023/03/07 17:50:42;;;;;;;;;;;1.70;99.90;;;;;;6223141;22;20011;-88
2023/03/07 17:53:11;;;;;;;;;;;1.80;99.90;;;;;;6248146;22;19974;-85
2023/03/07 18:11:50;;;;;;;3.78;1.10;;;1.30;99.90;;;;;;6421771;22;20336;-86
2023/03/07 18:15:04;;;;;;;4.40;0.90;;;1.70;99.90;;;;;;5101928;22;27770387;-85
2023/03/07 18:18:22;;;;;;;5.35;1.05;;;1.30;99.90;;;;;;6318222;22;20754;-85
2023/03/07 18:21:28;;;;;;;6.35;1.05;;;1.80;99.90;;;;;;6191040;22;20021;-88
2023/03/07 18:23:59;;;;;;;4.50;1.00;;;1.60;99.90;;;;;;6163355;23;20009;-85
2023/03/07 18:34:14;;;;;;;2.72;1.00;;;1.20;99.90;;;;;;6036765;23;20194;-86
2023/03/07 18:36:51;;;;;;;4.10;1.38;;;1.20;99.90;;;;;;6013855;23;20091;-85
2023/03/07 18:40:04;;;;;;;3.83;1.60;;;1.60;99.90;;;;;;6016652;23;20079;-88
2023/03/07 18:43:37;;;;;;;5.05;1.60;;;1.60;99.90;;;;;;6018838;23;20183;-88
